createdAt,value
2023-05-12T00:01:56.692Z,88.20
2023-05-12T00:04:24.966Z,88.20
2023-05-12T00:06:53.278Z,88.20
2023-05-12T00:09:21.547Z,88.20
2023-05-12T00:11:51.322Z,88.20
2023-05-12T00:14:19.635Z,88.20
2023-05-12T00:16:51.818Z,88.20
2023-05-12T00:19:21.128Z,88.20
2023-05-12T00:21:49.403Z,88.20
2023-05-12T00:24:17.690Z,88.20
2023-05-12T00:26:46.010Z,88.20
2023-05-12T00:29:15.801Z,88.20
2023-05-12T00:31:44.140Z,88.20
2023-05-12T00:34:12.523Z,88.20
2023-05-12T00:36:41.359Z,88.30
2023-05-12T00:39:09.993Z,88.20
2023-05-12T00:41:38.305Z,88.20
2023-05-12T00:44:06.826Z,88.30
2023-05-12T00:46:36.959Z,88.20
2023-05-12T00:49:05.608Z,88.20
2023-05-12T00:51:34.093Z,89.00
2023-05-12T00:54:03.677Z,88.20
2023-05-12T00:56:35.318Z,88.20
2023-05-12T00:59:04.193Z,88.20
2023-05-12T01:01:32.994Z,88.30
2023-05-12T01:04:03.997Z,88.20
2023-05-12T01:06:39.437Z,88.20
2023-05-12T01:09:09.845Z,88.30
2023-05-12T01:11:39.124Z,88.30
2023-05-12T01:14:08.014Z,88.20
2023-05-12T01:16:44.305Z,88.30
2023-05-12T01:19:28.221Z,88.30
2023-05-12T01:21:56.889Z,88.30
2023-05-12T01:24:27.462Z,88.30
2023-05-12T01:26:57.104Z,88.30
2023-05-12T01:29:25.993Z,88.20
2023-05-12T01:31:56.081Z,88.30
2023-05-12T01:34:25.079Z,88.30
2023-05-12T01:36:53.383Z,88.30
2023-05-12T01:39:21.785Z,88.30
2023-05-12T01:41:50.182Z,89.10
2023-05-12T01:44:20.573Z,88.40
2023-05-12T01:46:49.666Z,88.30
2023-05-12T01:49:18.110Z,88.30
2023-05-12T01:51:47.968Z,88.30
2023-05-12T01:54:18.529Z,89.10
2023-05-12T01:56:47.090Z,88.30
2023-05-12T01:59:15.460Z,88.30
2023-05-12T02:01:45.266Z,88.30
2023-05-12T02:04:16.997Z,88.30
2023-05-12T02:06:47.765Z,88.30
2023-05-12T02:09:16.172Z,88.30
2023-05-12T02:11:44.908Z,88.30
2023-05-12T02:14:13.320Z,88.30
2023-05-12T02:16:41.731Z,88.30
2023-05-12T02:19:11.609Z,88.30
2023-05-12T02:21:40.004Z,88.30
2023-05-12T02:24:08.647Z,88.30
2023-05-12T02:26:36.915Z,88.30
2023-05-12T02:29:05.285Z,88.40
2023-05-12T02:31:34.343Z,88.40
2023-05-12T02:34:06.340Z,88.40
2023-05-12T02:36:36.376Z,88.40
2023-05-12T02:39:05.365Z,88.40
2023-05-12T02:41:33.669Z,88.40
2023-05-12T02:44:02.070Z,88.30
2023-05-12T02:46:30.351Z,88.40
2023-05-12T02:48:58.814Z,88.30
2023-05-12T02:51:27.115Z,88.40
2023-05-12T02:53:56.816Z,88.40
2023-05-12T02:56:25.133Z,88.40
2023-05-12T02:58:55.113Z,88.40
2023-05-12T03:01:23.431Z,88.40
2023-05-12T03:03:51.915Z,88.40
2023-05-12T03:06:20.257Z,88.40
2023-05-12T03:08:48.605Z,88.40
2023-05-12T03:11:18.377Z,88.40
2023-05-12T03:13:47.301Z,88.40
2023-05-12T03:16:19.378Z,88.40
2023-05-12T03:18:48.107Z,88.40
2023-05-12T03:21:16.523Z,88.40
2023-05-12T03:23:44.856Z,88.40
2023-05-12T03:26:13.195Z,88.40
2023-05-12T03:28:42.871Z,88.40
2023-05-12T03:31:11.257Z,88.40
2023-05-12T03:33:39.765Z,88.40
2023-05-12T03:36:08.866Z,88.40
2023-05-12T03:38:37.404Z,89.20
2023-05-12T03:41:06.249Z,89.20
2023-05-12T03:43:36.102Z,88.40
2023-05-12T03:46:06.405Z,88.40
2023-05-12T03:48:34.730Z,88.40
2023-05-12T03:51:03.912Z,88.50
2023-05-12T03:53:32.340Z,88.40
2023-05-12T03:56:05.879Z,88.50
2023-05-12T03:58:34.541Z,88.50
2023-05-12T04:01:03.009Z,88.50
2023-05-12T04:03:32.734Z,88.50
2023-05-12T04:06:02.186Z,88.50
2023-05-12T04:08:31.149Z,88.40
2023-05-12T04:11:01.067Z,88.50
2023-05-12T04:13:31.111Z,88.50
2023-05-12T04:16:03.040Z,88.50
2023-05-12T04:18:32.805Z,89.30
2023-05-12T04:21:01.536Z,88.50
2023-05-12T04:23:29.911Z,88.50
2023-05-12T04:25:58.472Z,88.50
2023-05-12T04:28:26.982Z,89.30
2023-05-12T04:30:55.372Z,88.50
2023-05-12T04:33:25.170Z,88.50
2023-05-12T04:35:58.320Z,88.50
2023-05-12T04:38:27.453Z,88.50
2023-05-12T04:40:59.843Z,88.40
2023-05-12T04:46:00.553Z,89.30
2023-05-12T04:48:29.908Z,88.50
2023-05-12T04:51:01.720Z,88.50
2023-05-12T04:53:34.691Z,88.50
2023-05-12T04:56:03.337Z,88.40
2023-05-12T04:58:36.595Z,88.40
2023-05-12T05:01:05.326Z,88.40
2023-05-12T05:03:34.800Z,88.40
2023-05-12T05:06:04.962Z,88.40
2023-05-12T05:08:33.839Z,88.40
2023-05-12T05:11:02.179Z,88.40
2023-05-12T05:13:31.877Z,88.30
2023-05-12T05:16:00.294Z,88.30
2023-05-12T05:18:29.239Z,88.30
2023-05-12T05:20:59.225Z,88.30
2023-05-12T05:23:29.483Z,88.20
2023-05-12T05:25:57.864Z,89.10
2023-05-12T05:28:26.725Z,88.20
2023-05-12T05:30:55.206Z,88.30
2023-05-12T05:33:24.648Z,88.30
2023-05-12T05:35:53.233Z,88.30
2023-05-12T05:38:21.785Z,88.20
2023-05-12T05:40:53.803Z,89.00
2023-05-12T05:43:24.301Z,88.20
2023-05-12T05:45:53.260Z,88.10
2023-05-12T05:48:22.909Z,88.20
2023-05-12T05:50:52.763Z,88.10
2023-05-12T05:53:23.002Z,88.90
2023-05-12T05:55:53.167Z,88.10
2023-05-12T05:58:21.528Z,88.90
2023-05-12T06:00:50.642Z,88.80
2023-05-12T06:03:20.026Z,88.10
2023-05-12T06:05:49.334Z,88.90
2023-05-12T06:08:17.971Z,88.10
2023-05-12T06:10:46.290Z,88.90
2023-05-12T06:13:15.964Z,88.00
2023-05-12T06:15:44.306Z,88.00
2023-05-12T06:18:13.668Z,88.80
2023-05-12T06:20:42.502Z,88.00
2023-05-12T06:23:10.860Z,88.00
2023-05-12T06:25:40.354Z,87.90
2023-05-12T06:28:08.961Z,87.90
2023-05-12T06:30:38.638Z,87.80
2023-05-12T06:33:06.994Z,87.70
2023-05-12T06:35:35.688Z,87.60
2023-05-12T06:38:07.396Z,87.60
2023-05-12T06:40:35.790Z,87.50
2023-05-12T06:43:04.184Z,87.50
2023-05-12T06:45:38.142Z,87.50
2023-05-12T06:48:09.474Z,87.50
2023-05-12T06:50:37.971Z,88.20
2023-05-12T06:53:06.374Z,87.50
2023-05-12T06:55:34.700Z,87.40
2023-05-12T06:58:03.127Z,87.40
2023-05-12T07:00:31.544Z,87.40
2023-05-12T07:03:01.220Z,87.30
2023-05-12T07:05:29.624Z,87.30
2023-05-12T07:07:57.989Z,87.30
2023-05-12T07:10:26.519Z,87.30
2023-05-12T07:12:54.899Z,87.20
2023-05-12T07:15:23.507Z,88.00
2023-05-12T07:17:52.006Z,87.20
2023-05-12T07:20:21.881Z,87.20
2023-05-12T07:22:52.145Z,87.20
2023-05-12T07:25:21.102Z,87.20
2023-05-12T07:27:49.995Z,87.20
2023-05-12T07:30:18.690Z,87.10
2023-05-12T07:32:47.216Z,87.10
2023-05-12T07:35:15.612Z,87.10
2023-05-12T07:37:45.250Z,87.00
2023-05-12T07:40:13.811Z,87.80
2023-05-12T07:42:42.127Z,87.00
2023-05-12T07:45:10.916Z,86.90
2023-05-12T07:47:39.222Z,86.80
2023-05-12T07:50:08.352Z,86.70
2023-05-12T07:52:36.643Z,86.70
2023-05-12T07:55:07.050Z,86.60
2023-05-12T07:57:35.480Z,86.60
2023-05-12T08:00:04.871Z,86.40
2023-05-12T08:02:41.950Z,86.30
2023-05-12T08:05:10.957Z,86.20
2023-05-12T08:07:43.536Z,86.20
2023-05-12T08:10:14.038Z,87.00
2023-05-12T08:12:43.211Z,86.10
2023-05-12T08:15:12.453Z,86.10
2023-05-12T08:17:40.917Z,86.00
2023-05-12T08:20:11.437Z,85.90
2023-05-12T08:22:40.067Z,86.70
2023-05-12T08:25:12.290Z,85.80
2023-05-12T08:27:42.323Z,85.90
2023-05-12T08:30:11.532Z,85.90
2023-05-12T08:32:40.098Z,85.90
2023-05-12T08:35:08.705Z,86.80
2023-05-12T08:37:36.996Z,86.00
2023-05-12T08:40:12.809Z,86.80
2023-05-12T08:42:45.762Z,86.20
2023-05-12T08:45:16.747Z,86.10
2023-05-12T08:47:46.541Z,86.20
2023-05-12T08:50:18.402Z,86.20
2023-05-12T08:52:46.798Z,86.20
2023-05-12T08:55:15.800Z,86.20
2023-05-12T08:57:48.471Z,86.30
2023-05-12T09:00:18.334Z,86.20
2023-05-12T09:02:52.704Z,86.20
2023-05-12T09:05:22.983Z,86.30
2023-05-12T09:07:54.583Z,86.60
2023-05-12T09:10:34.395Z,86.30
2023-05-12T09:13:18.598Z,86.20
2023-05-12T09:15:49.181Z,86.20
2023-05-12T09:18:17.488Z,86.20
2023-05-12T09:20:45.935Z,86.00
2023-05-12T09:23:16.108Z,86.90
2023-05-12T09:25:44.769Z,86.00
2023-05-12T09:28:14.468Z,86.00
2023-05-12T09:30:43.037Z,86.90
2023-05-12T09:33:12.950Z,86.00
2023-05-12T09:35:42.261Z,86.00
2023-05-12T09:38:11.832Z,86.80
2023-05-12T09:40:41.071Z,86.00
2023-05-12T09:43:09.983Z,86.10
2023-05-12T09:45:39.977Z,86.00
2023-05-12T09:48:14.422Z,86.00
2023-05-12T09:50:51.486Z,86.10
2023-05-12T09:53:23.054Z,86.20
2023-05-12T09:55:51.378Z,86.20
2023-05-12T09:58:21.109Z,86.30
2023-05-12T10:03:27.466Z,86.30
2023-05-12T10:06:22.130Z,86.20
2023-05-12T10:08:59.120Z,86.20
2023-05-12T10:11:27.538Z,86.20
2023-05-12T10:13:56.960Z,86.10
2023-05-12T10:16:28.928Z,86.20
2023-05-12T10:18:57.670Z,86.10
2023-05-12T10:21:27.065Z,86.10
2023-05-12T10:23:55.878Z,86.10
2023-05-12T10:26:24.708Z,86.20
2023-05-12T10:28:54.287Z,86.10
2023-05-12T10:31:24.071Z,86.10
2023-05-12T10:34:01.455Z,86.10
2023-05-12T10:36:30.018Z,86.10
2023-05-12T10:39:06.367Z,86.10
2023-05-12T10:41:35.832Z,86.10
2023-05-12T10:44:04.134Z,86.20
2023-05-12T10:46:32.624Z,86.20
2023-05-12T10:49:04.296Z,86.30
2023-05-12T10:51:34.740Z,86.30
2023-05-12T10:54:04.826Z,87.20
2023-05-12T10:56:44.206Z,86.50
2023-05-12T10:59:15.026Z,86.50
2023-05-12T11:01:45.474Z,86.60
2023-05-12T11:04:16.941Z,86.60
2023-05-12T11:06:47.072Z,86.70
2023-05-12T11:09:17.608Z,86.70
2023-05-12T11:11:47.593Z,86.80
2023-05-12T11:14:16.797Z,86.80
2023-05-12T11:16:46.435Z,86.80
2023-05-12T11:19:19.436Z,86.80
2023-05-12T11:21:47.856Z,86.80
2023-05-12T11:24:16.737Z,86.80
2023-05-12T11:26:45.100Z,86.70
2023-05-12T11:29:13.425Z,86.70
2023-05-12T11:31:41.845Z,86.70
2023-05-12T11:34:13.511Z,86.70
2023-05-12T11:36:45.311Z,87.50
2023-05-12T11:39:20.881Z,86.70
2023-05-12T11:41:51.367Z,86.70
2023-05-12T11:44:22.299Z,86.80
2023-05-12T11:46:59.999Z,87.60
2023-05-12T11:49:29.129Z,86.80
2023-05-12T11:52:01.101Z,86.80
2023-05-12T11:54:30.732Z,86.80
2023-05-12T11:57:01.298Z,86.80
2023-05-12T11:59:31.477Z,86.80
2023-05-12T12:02:00.604Z,87.60
2023-05-12T12:04:36.678Z,86.80
2023-05-12T12:07:07.038Z,86.70
2023-05-12T12:09:37.304Z,86.70
2023-05-12T12:12:07.343Z,86.70
2023-05-12T12:14:38.028Z,86.70
2023-05-12T12:17:06.822Z,86.80
2023-05-12T12:19:35.282Z,86.60
2023-05-12T12:22:03.613Z,86.60
2023-05-12T12:24:33.334Z,86.60
2023-05-12T12:27:01.743Z,86.50
2023-05-12T12:29:30.202Z,86.50
2023-05-12T12:31:58.577Z,86.50
2023-05-12T12:34:26.954Z,86.40
2023-05-12T12:36:55.252Z,86.40
2023-05-12T12:39:24.144Z,86.30
2023-05-12T12:41:54.596Z,86.30
2023-05-12T12:44:22.896Z,86.20
2023-05-12T12:46:51.296Z,86.20
2023-05-12T12:49:19.627Z,86.20
2023-05-12T12:51:47.986Z,87.00
2023-05-12T12:54:16.454Z,86.20
2023-05-12T12:56:45.253Z,86.30
2023-05-12T12:59:15.053Z,86.30
2023-05-12T13:01:43.654Z,86.30
2023-05-12T13:04:12.019Z,86.40
2023-05-12T13:06:40.986Z,86.50
2023-05-12T13:09:09.337Z,86.50
2023-05-12T13:11:37.826Z,86.60
2023-05-12T13:14:06.181Z,86.60
2023-05-12T13:16:36.325Z,86.70
2023-05-12T13:19:04.828Z,86.80
2023-05-12T13:21:33.384Z,87.60
2023-05-12T13:24:01.896Z,86.80
2023-05-12T13:26:30.144Z,86.90
2023-05-12T13:28:58.386Z,87.00
2023-05-12T13:31:26.927Z,86.90
2023-05-12T13:33:56.856Z,87.00
2023-05-12T13:36:25.151Z,87.00
2023-05-12T13:38:53.520Z,87.20
2023-05-12T13:41:21.989Z,87.20
2023-05-12T13:43:50.393Z,87.20
2023-05-12T13:46:18.876Z,87.20
2023-05-12T13:48:48.038Z,87.30
2023-05-12T13:51:17.737Z,87.30
2023-05-12T13:53:46.363Z,87.30
2023-05-12T13:56:18.757Z,87.30
2023-05-12T13:58:47.789Z,87.40
2023-05-12T14:01:16.696Z,87.30
2023-05-12T14:03:45.611Z,87.40
2023-05-12T14:06:14.383Z,87.30
2023-05-12T14:08:44.188Z,87.40
2023-05-12T14:11:12.543Z,87.40
2023-05-12T14:13:41.179Z,87.40
2023-05-12T14:16:09.945Z,87.40
2023-05-12T14:18:38.620Z,87.50
2023-05-12T14:21:07.333Z,87.50
2023-05-12T14:23:36.555Z,87.50
2023-05-12T14:26:06.303Z,87.50
2023-05-12T14:28:38.825Z,87.60
2023-05-12T14:31:07.558Z,87.60
2023-05-12T14:33:35.975Z,87.70
2023-05-12T14:36:08.119Z,87.80
2023-05-12T14:38:37.065Z,87.80
2023-05-12T14:41:08.491Z,87.80
2023-05-12T14:43:37.148Z,87.80
2023-05-12T14:46:06.690Z,87.80
2023-05-12T14:48:34.999Z,87.80
2023-05-12T14:51:03.466Z,87.90
2023-05-12T14:53:32.312Z,87.90
2023-05-12T14:56:00.593Z,87.90
2023-05-12T14:58:30.298Z,88.00
2023-05-12T15:00:59.371Z,88.00
2023-05-12T15:03:29.972Z,88.00
2023-05-12T15:08:30.176Z,87.90
2023-05-12T15:10:58.494Z,88.00
2023-05-12T15:13:26.837Z,87.90
2023-05-12T15:15:56.979Z,87.90
2023-05-12T15:18:25.576Z,87.90
2023-05-12T15:20:53.913Z,87.90
2023-05-12T15:23:22.523Z,87.90
2023-05-12T15:25:50.795Z,87.90
2023-05-12T15:28:19.312Z,87.90
2023-05-12T15:30:57.412Z,87.80
2023-05-12T15:33:26.747Z,87.80
2023-05-12T15:35:55.759Z,87.80
2023-05-12T15:38:24.073Z,87.80
2023-05-12T15:40:52.445Z,87.80
2023-05-12T15:43:20.878Z,87.80
2023-05-12T15:45:49.156Z,87.90
2023-05-12T15:48:18.897Z,87.70
2023-05-12T15:50:47.236Z,87.80
2023-05-12T15:53:15.715Z,87.80
2023-05-12T15:55:44.271Z,87.70
2023-05-12T15:58:12.958Z,87.70
2023-05-12T16:00:41.401Z,88.40
2023-05-12T16:03:09.782Z,87.60
2023-05-12T16:05:41.282Z,87.60
2023-05-12T16:08:09.578Z,87.60
2023-05-12T16:10:37.842Z,87.60
2023-05-12T16:13:06.428Z,88.40
2023-05-12T16:15:34.790Z,87.60
2023-05-12T16:18:03.309Z,87.60
2023-05-12T16:20:31.640Z,87.60
2023-05-12T16:23:02.563Z,87.60
2023-05-12T16:25:30.908Z,87.60
2023-05-12T16:27:59.189Z,87.60
2023-05-12T16:30:30.053Z,88.50
2023-05-12T16:32:58.454Z,87.60
2023-05-12T16:35:26.979Z,87.60
2023-05-12T16:37:55.359Z,88.50
2023-05-12T16:40:25.350Z,87.70
2023-05-12T16:42:54.904Z,87.70
2023-05-12T16:45:24.480Z,87.70
2023-05-12T16:47:53.253Z,87.70
2023-05-12T16:50:23.546Z,87.70
2023-05-12T16:52:53.699Z,87.70
2023-05-12T16:55:22.679Z,87.70
2023-05-12T16:57:52.648Z,87.70
2023-05-12T17:00:21.834Z,87.80
2023-05-12T17:02:50.603Z,87.80
2023-05-12T17:05:19.032Z,87.80
2023-05-12T17:07:47.438Z,87.80
2023-05-12T17:10:16.035Z,87.80
2023-05-12T17:12:44.317Z,87.90
2023-05-12T17:15:14.741Z,88.70
2023-05-12T17:17:43.474Z,87.90
2023-05-12T17:20:12.947Z,87.90
2023-05-12T17:22:44.411Z,87.90
2023-05-12T17:25:12.822Z,87.90
2023-05-12T17:27:41.320Z,87.90
2023-05-12T17:30:10.602Z,88.00
2023-05-12T17:32:40.526Z,88.00
2023-05-12T17:35:09.968Z,88.00
2023-05-12T17:37:38.826Z,88.10
2023-05-12T17:40:08.810Z,88.20
2023-05-12T17:42:37.258Z,88.20
2023-05-12T17:45:07.652Z,88.20
2023-05-12T17:47:35.978Z,88.20
2023-05-12T17:50:06.669Z,88.20
2023-05-12T17:52:34.982Z,88.20
2023-05-12T17:55:03.547Z,88.20
2023-05-12T17:57:31.843Z,88.30
2023-05-12T18:00:00.332Z,88.30
2023-05-12T18:02:29.045Z,88.30
2023-05-12T18:04:57.372Z,88.30
2023-05-12T18:07:27.475Z,88.30
2023-05-12T18:09:55.859Z,88.40
2023-05-12T18:12:24.412Z,88.40
2023-05-12T18:14:52.835Z,89.10
2023-05-12T18:17:21.548Z,88.40
2023-05-12T18:19:49.899Z,88.50
2023-05-12T18:22:18.397Z,88.50
2023-05-12T18:24:48.117Z,88.60
2023-05-12T18:27:16.426Z,88.50
2023-05-12T18:29:44.702Z,88.50
2023-05-12T18:32:12.968Z,88.50
2023-05-12T18:34:44.049Z,88.50
2023-05-12T18:37:15.464Z,88.60
2023-05-12T18:39:43.987Z,88.60
2023-05-12T18:42:13.729Z,88.60
2023-05-12T18:44:42.375Z,88.70
2023-05-12T18:47:10.681Z,88.70
2023-05-12T18:49:39.135Z,88.70
2023-05-12T18:52:07.581Z,89.50
2023-05-12T18:54:36.304Z,88.70
2023-05-12T18:57:05.012Z,89.60
2023-05-12T18:59:34.660Z,88.80
2023-05-12T19:02:03.764Z,88.70
2023-05-12T19:04:32.174Z,88.80
2023-05-12T19:07:00.907Z,88.80
2023-05-12T19:09:29.198Z,88.80
2023-05-12T19:11:57.612Z,88.80
2023-05-12T19:14:25.827Z,88.80
2023-05-12T19:16:55.430Z,88.80
2023-05-12T19:19:23.694Z,88.90
2023-05-12T19:21:52.946Z,88.80
2023-05-12T19:24:21.185Z,88.90
2023-05-12T19:26:49.469Z,88.90
2023-05-12T19:29:17.720Z,88.90
2023-05-12T19:31:46.089Z,88.90
2023-05-12T19:34:16.367Z,88.90
2023-05-12T19:36:44.758Z,89.70
2023-05-12T19:39:13.008Z,88.90
2023-05-12T19:41:42.294Z,89.80
2023-05-12T19:44:10.636Z,88.90
2023-05-12T19:46:39.086Z,88.90
2023-05-12T19:49:07.635Z,88.90
2023-05-12T19:51:37.333Z,88.90
2023-05-12T19:54:06.477Z,89.00
2023-05-12T19:56:35.047Z,89.00
2023-05-12T19:59:03.360Z,89.00
2023-05-12T20:01:32.069Z,89.00
2023-05-12T20:04:00.431Z,89.00
2023-05-12T20:06:28.932Z,89.70
2023-05-12T20:08:58.610Z,89.00
2023-05-12T20:11:26.993Z,89.00
2023-05-12T20:13:55.293Z,89.00
2023-05-12T20:16:23.660Z,89.00
2023-05-12T20:18:52.025Z,89.00
2023-05-12T20:21:20.569Z,89.00
2023-05-12T20:23:48.881Z,89.00
2023-05-12T20:26:18.762Z,89.00
2023-05-12T20:28:47.246Z,89.00
2023-05-12T20:31:15.563Z,89.00
2023-05-12T20:33:43.957Z,89.00
2023-05-12T20:36:12.379Z,89.00
2023-05-12T20:38:40.878Z,89.10
2023-05-12T20:41:10.626Z,89.00
2023-05-12T20:43:41.348Z,89.00
2023-05-12T20:46:09.925Z,88.90
2023-05-12T20:48:38.612Z,89.10
2023-05-12T20:51:13.332Z,89.00
2023-05-12T20:53:42.207Z,88.90
2023-05-12T20:56:10.781Z,88.90
2023-05-12T20:58:41.927Z,88.90
2023-05-12T21:01:10.573Z,89.00
2023-05-12T21:03:39.079Z,88.90
2023-05-12T21:06:08.037Z,88.90
2023-05-12T21:08:36.443Z,89.00
2023-05-12T21:11:04.773Z,89.00
2023-05-12T21:13:33.038Z,89.00
2023-05-12T21:16:02.736Z,89.00
2023-05-12T21:18:33.159Z,89.00
2023-05-12T21:21:01.499Z,89.10
2023-05-12T21:23:29.834Z,89.00
2023-05-12T21:25:58.137Z,89.10
2023-05-12T21:28:26.853Z,89.10
2023-05-12T21:30:55.159Z,89.10
2023-05-12T21:33:24.868Z,89.00
2023-05-12T21:35:53.150Z,89.10
2023-05-12T21:38:21.735Z,89.10
2023-05-12T21:40:51.798Z,89.00
2023-05-12T21:43:20.039Z,89.10
2023-05-12T21:45:48.371Z,89.10
2023-05-12T21:48:16.653Z,89.10
2023-05-12T21:50:46.314Z,89.00
2023-05-12T21:53:14.636Z,89.00
2023-05-12T21:55:43.062Z,89.10
2023-05-12T21:58:11.335Z,89.00
2023-05-12T22:00:39.638Z,89.10
2023-05-12T22:03:08.666Z,89.10
2023-05-12T22:05:37.048Z,89.10
2023-05-12T22:08:06.783Z,89.90
2023-05-12T22:10:35.201Z,89.10
2023-05-12T22:13:03.442Z,89.10
2023-05-12T22:15:31.910Z,89.10
2023-05-12T22:18:00.704Z,89.10
2023-05-12T22:20:29.103Z,89.10
2023-05-12T22:22:57.637Z,89.10
2023-05-12T22:25:27.226Z,89.10
2023-05-12T22:27:55.455Z,89.10
2023-05-12T22:30:24.065Z,89.10
2023-05-12T22:32:52.644Z,89.10
2023-05-12T22:35:21.174Z,89.10
2023-05-12T22:37:50.348Z,89.10
2023-05-12T22:40:21.368Z,89.90
2023-05-12T22:42:51.248Z,89.10
2023-05-12T22:45:19.493Z,89.10
2023-05-12T22:47:47.788Z,89.10
2023-05-12T22:50:16.152Z,89.20
2023-05-12T22:52:44.424Z,89.10
2023-05-12T22:55:12.727Z,89.10
2023-05-12T22:57:43.545Z,89.20
2023-05-12T23:00:14.468Z,89.20
2023-05-12T23:02:42.879Z,89.20
2023-05-12T23:05:11.428Z,89.10
2023-05-12T23:07:39.722Z,89.20
2023-05-12T23:10:09.187Z,89.10
2023-05-12T23:12:37.858Z,89.10
2023-05-12T23:15:07.668Z,89.90
2023-05-12T23:17:37.491Z,89.10
2023-05-12T23:20:07.388Z,89.10
2023-05-12T23:22:35.667Z,89.10
2023-05-12T23:25:03.968Z,89.20
2023-05-12T23:27:32.355Z,89.10
2023-05-12T23:30:01.093Z,89.10
2023-05-12T23:32:29.436Z,89.10
2023-05-12T23:34:59.097Z,89.10
2023-05-12T23:37:27.504Z,89.20
2023-05-12T23:39:55.905Z,89.10
2023-05-12T23:42:24.461Z,89.10
2023-05-12T23:44:52.774Z,89.20
2023-05-12T23:47:21.131Z,89.20
2023-05-12T23:49:49.438Z,89.20
2023-05-12T23:52:19.046Z,89.20
2023-05-12T23:54:47.271Z,89.10
2023-05-12T23:57:15.603Z,89.20
2023-05-12T23:59:43.857Z,89.20
